Time;durP1;ratioP1;P1;durP2;ratioP2;P2;SDS_P1;SDS_P2;PMS_P1;PMS_P2;Temp;Humidity;BMP_temperature;BMP_pressure;BME280_temperature;BME280_humidity;BME280_pressure;Samples;Min_cycle;Max_cycle;Signal;HPM_P1;HPM_P2
2023/09/01 00:01:42;;;;;;;7.80;4.00;;;;;;;16.50;72.26;96132.78;5067002;28;20206;-69
2023/09/01 00:04:08;;;;;;;5.57;4.17;;;;;;;16.47;72.55;96133.00;5066385;28;20584;-70
2023/09/01 00:06:34;;;;;;;8.13;5.50;;;;;;;16.36;73.02;96135.56;5066994;28;20178;-69
2023/09/01 00:08:59;;;;;;;5.97;4.33;;;;;;;16.26;73.70;96136.22;5066513;28;20182;-69
2023/09/01 00:11:24;;;;;;;5.93;4.40;;;;;;;16.35;72.97;96126.78;5066737;28;20628;-69
2023/09/01 00:13:50;;;;;;;5.30;3.77;;;;;;;16.27;73.30;96127.31;5066143;28;20228;-68
2023/09/01 00:16:15;;;;;;;7.57;4.87;;;;;;;16.28;73.11;96129.03;5066139;28;20205;-68
2023/09/01 00:18:41;;;;;;;7.67;4.43;;;;;;;16.30;73.38;96124.47;5066202;28;20243;-68
2023/09/01 00:21:06;;;;;;;6.80;3.67;;;;;;;16.34;72.97;96117.13;5066441;28;20201;-68
2023/09/01 00:23:32;;;;;;;5.13;3.70;;;;;;;16.22;73.29;96112.72;5066704;28;20893;-68
2023/09/01 00:26:01;;;;;;;5.40;4.13;;;;;;;16.14;73.70;96118.56;5067560;28;20193;-69
2023/09/01 00:28:27;;;;;;;4.27;3.87;;;;;;;16.08;74.13;96114.53;5067314;28;20523;-69
2023/09/01 00:30:55;;;;;;;7.00;4.33;;;;;;;16.16;73.88;96114.00;5066897;28;21233;-70
2023/09/01 00:33:20;;;;;;;5.43;3.90;;;;;;;16.20;73.79;96115.47;5067127;28;20174;-69
2023/09/01 00:35:48;;;;;;;6.30;4.63;;;;;;;16.21;73.17;96105.75;5066768;28;20443;-69
2023/09/01 00:38:13;;;;;;;6.63;4.47;;;;;;;16.36;72.82;96106.44;5067107;28;20182;-68
2023/09/01 00:40:39;;;;;;;5.77;4.23;;;;;;;16.24;72.97;96114.31;5066480;28;20417;-68
2023/09/01 00:43:04;;;;;;;6.37;4.40;;;;;;;16.31;72.84;96112.06;5066170;28;20170;-69
2023/09/01 00:45:30;;;;;;;5.73;4.63;;;;;;;16.28;72.90;96105.19;5066214;28;20190;-69
2023/09/01 00:47:55;;;;;;;10.97;5.17;;;;;;;16.27;72.40;96106.13;5066193;28;20631;-69
2023/09/01 00:50:21;;;;;;;8.70;4.43;;;;;;;16.29;72.25;96096.28;5066200;28;20189;-69
2023/09/01 00:52:46;;;;;;;9.57;4.90;;;;;;;16.32;72.35;96094.38;5065906;28;20175;-69
2023/09/01 00:55:12;;;;;;;4.53;3.40;;;;;;;16.29;72.23;96090.97;5065755;28;20192;-69
2023/09/01 00:57:37;;;;;;;4.97;4.40;;;;;;;16.29;72.36;96093.63;5065595;28;20212;-69
2023/09/01 01:00:05;;;;;;;6.53;4.10;;;;;;;16.18;72.60;96090.06;5066010;28;20193;-69
2023/09/01 01:02:31;;;;;;;6.10;4.20;;;;;;;16.32;72.51;96097.03;5065867;28;20752;-69
2023/09/01 01:04:57;;;;;;;9.07;5.37;;;;;;;16.27;71.87;96084.94;5065635;28;20523;-69
2023/09/01 01:07:38;;;;;;;6.57;3.87;;;;;;;16.21;72.59;96088.06;5065823;28;20400;-69
2023/09/01 01:10:16;;;;;;;5.03;4.47;;;;;;;16.37;72.27;96084.28;5065639;28;20924;-68
2023/09/01 01:12:49;;;;;;;4.73;4.23;;;;;;;16.30;72.46;96076.81;5068186;28;20434;-69
2023/09/01 01:15:17;;;;;;;6.10;4.13;;;;;;;16.32;72.38;96081.13;5069717;28;20919;-69
2023/09/01 01:17:44;;;;;;;8.40;5.10;;;;;;;16.38;72.13;96078.06;5069594;28;20461;-69
2023/09/01 01:20:16;;;;;;;4.60;3.53;;;;;;;16.39;72.24;96082.38;5069980;28;20412;-69
2023/09/01 01:22:49;;;;;;;5.80;4.67;;;;;;;16.36;71.91;96067.56;5069967;28;20404;-69
2023/09/01 01:25:14;;;;;;;8.03;5.03;;;;;;;16.41;72.22;96059.28;5069730;28;20435;-68
2023/09/01 01:27:42;;;;;;;5.40;4.60;;;;;;;16.34;72.45;96072.13;5069744;28;20419;-68
2023/09/01 01:30:09;;;;;;;5.00;4.37;;;;;;;16.38;72.23;96070.09;5069530;28;20178;-69
2023/09/01 01:32:36;;;;;;;5.47;3.87;;;;;;;16.40;72.39;96070.84;5069576;28;21287;-69
2023/09/01 01:35:51;;;;;;;5.80;3.73;;;;;;;16.44;72.32;96072.28;5069266;28;20472;-68
2023/09/01 01:38:21;;;;;;;9.80;4.10;;;;;;;16.50;72.47;96069.22;5063909;28;20432;-69
2023/09/01 01:40:50;;;;;;;8.13;4.93;;;;;;;16.45;72.61;96074.00;5069362;28;20554;-68
2023/09/01 01:43:25;;;;;;;9.70;4.07;;;;;;;16.47;72.60;96067.63;5068904;28;20408;-68
2023/09/01 01:45:52;;;;;;;5.87;4.60;;;;;;;16.46;73.18;96068.59;5068954;28;20431;-68
2023/09/01 01:48:18;;;;;;;4.63;4.23;;;;;;;16.42;73.19;96067.13;5069217;28;20486;-68
2023/09/01 01:50:43;;;;;;;5.70;4.63;;;;;;;16.36;72.96;96059.63;5068993;28;21166;-68
2023/09/01 01:53:09;;;;;;;4.77;4.30;;;;;;;16.42;72.89;96068.94;5068730;28;20170;-68
2023/09/01 01:55:34;;;;;;;6.40;4.70;;;;;;;16.41;72.66;96068.06;5068825;28;20193;-68
2023/09/01 01:58:00;;;;;;;5.73;4.13;;;;;;;16.42;72.82;96061.00;5068845;28;20284;-68
2023/09/01 02:00:28;;;;;;;9.20;6.40;;;;;;;16.30;73.32;96066.22;5068788;28;20170;-68
2023/09/01 02:02:54;;;;;;;7.40;4.73;;;;;;;16.34;73.76;96072.13;5068533;28;20431;-68
2023/09/01 02:05:20;;;;;;;8.53;5.27;;;;;;;16.27;73.08;96062.94;5068631;28;21270;-68
2023/09/01 02:07:45;;;;;;;6.73;4.90;;;;;;;16.28;73.37;96065.47;5068583;28;20162;-68
2023/09/01 02:10:11;;;;;;;6.03;4.43;;;;;;;16.25;73.53;96063.06;5068830;28;20173;-68
2023/09/01 02:12:36;;;;;;;5.73;4.60;;;;;;;16.29;73.07;96058.38;5068698;28;20180;-69
2023/09/01 02:15:08;;;;;;;8.40;5.10;;;;;;;16.29;72.98;96061.03;5068146;28;20255;-68
2023/09/01 02:17:35;;;;;;;6.67;4.90;;;;;;;16.25;72.95;96060.41;5069050;28;20200;-68
2023/09/01 02:20:01;;;;;;;5.90;4.20;;;;;;;16.22;73.20;96063.25;5068850;28;20496;-68
2023/09/01 02:22:26;;;;;;;8.60;4.93;;;;;;;16.22;72.81;96065.06;5068887;28;20409;-69
2023/09/01 02:24:51;;;;;;;6.37;5.47;;;;;;;16.20;73.00;96059.03;5069004;28;20194;-69
2023/09/01 02:27:17;;;;;;;8.43;4.90;;;;;;;16.16;73.03;96069.00;5068763;28;20271;-68
2023/09/01 02:29:42;;;;;;;7.00;4.93;;;;;;;16.21;72.26;96063.38;5059872;28;20185;-69
2023/09/01 02:32:08;;;;;;;5.53;4.73;;;;;;;16.23;72.24;96070.25;5048762;28;20178;-69
2023/09/01 02:34:33;;;;;;;6.03;4.63;;;;;;;16.19;72.84;96071.44;5048229;28;20191;-69
2023/09/01 02:36:58;;;;;;;8.63;5.60;;;;;;;16.24;72.56;96069.28;5048397;28;20584;-69
2023/09/01 02:39:24;;;;;;;4.83;4.43;;;;;;;16.25;72.60;96072.78;5048336;28;20167;-69
2023/09/01 02:41:49;;;;;;;14.27;5.20;;;;;;;16.23;72.24;96072.91;5048121;28;20173;-69
2023/09/01 02:44:14;;;;;;;8.50;4.30;;;;;;;16.22;72.32;96063.25;5047714;28;20281;-68
2023/09/01 02:46:40;;;;;;;9.93;5.53;;;;;;;16.22;72.61;96068.56;5048550;28;20171;-69
2023/09/01 02:49:05;;;;;;;6.70;4.17;;;;;;;16.11;72.84;96080.88;5048482;28;20524;-69
2023/09/01 02:51:30;;;;;;;5.87;4.53;;;;;;;16.20;73.18;96080.22;5048276;28;20199;-69
2023/09/01 02:53:56;;;;;;;5.00;4.57;;;;;;;16.17;73.03;96083.94;5047496;28;20191;-68
2023/09/01 02:56:21;;;;;;;4.90;4.20;;;;;;;16.24;72.61;96085.19;5047747;28;20202;-69
2023/09/01 02:58:46;;;;;;;5.57;5.07;;;;;;;16.22;72.94;96079.13;5047889;28;20967;-69
2023/09/01 03:01:12;;;;;;;9.60;5.50;;;;;;;16.27;72.54;96081.47;5047911;28;20170;-69
2023/09/01 03:03:40;;;;;;;5.40;4.90;;;;;;;16.24;71.97;96082.53;5047293;28;20565;-69
2023/09/01 03:06:08;;;;;;;13.33;5.53;;;;;;;16.22;72.72;96086.25;5048182;28;20183;-69
2023/09/01 03:08:34;;;;;;;5.30;3.83;;;;;;;16.21;72.56;96090.69;5047818;28;20414;-68
2023/09/01 03:11:00;;;;;;;6.67;4.73;;;;;;;16.25;72.41;96086.03;5047842;28;20437;-69
2023/09/01 03:13:25;;;;;;;6.50;5.67;;;;;;;16.27;72.46;96086.75;5047696;28;20405;-69
2023/09/01 03:15:54;;;;;;;7.40;4.90;;;;;;;16.26;72.48;96091.22;5047645;28;20245;-69
2023/09/01 03:18:19;;;;;;;7.90;4.57;;;;;;;16.20;72.69;96083.69;5047934;28;20183;-69
2023/09/01 03:20:45;;;;;;;7.50;5.13;;;;;;;16.21;72.00;96084.56;5048430;28;20466;-69
2023/09/01 03:23:10;;;;;;;6.27;4.70;;;;;;;16.21;72.09;96089.88;5047835;28;20535;-68
2023/09/01 03:25:36;;;;;;;6.13;4.37;;;;;;;16.23;71.81;96086.16;5047792;28;20201;-68
2023/09/01 03:28:01;;;;;;;8.83;6.67;;;;;;;16.25;71.96;96083.38;5047912;28;20163;-69
2023/09/01 03:30:26;;;;;;;6.27;5.03;;;;;;;16.26;71.91;96080.63;5062607;28;20177;-69
2023/09/01 03:32:52;;;;;;;8.03;5.13;;;;;;;16.15;72.47;96080.53;5067663;28;20176;-69
2023/09/01 03:35:17;;;;;;;4.80;4.40;;;;;;;16.25;72.54;96084.25;5066601;28;20683;-67
2023/09/01 03:37:43;;;;;;;7.23;4.87;;;;;;;16.25;72.26;96073.66;5067282;28;20210;-69
2023/09/01 03:40:09;;;;;;;6.37;4.57;;;;;;;16.22;72.21;96078.31;5067089;28;20275;-69
2023/09/01 03:42:38;;;;;;;5.70;4.47;;;;;;;16.26;71.90;96077.13;5066910;28;20177;-69
2023/09/01 03:45:04;;;;;;;7.03;4.60;;;;;;;16.20;72.08;96081.03;5066793;28;20929;-69
2023/09/01 03:47:30;;;;;;;4.53;4.13;;;;;;;16.25;71.61;96094.84;5066682;28;20412;-69
2023/09/01 03:49:55;;;;;;;17.47;6.27;;;;;;;16.23;71.79;96086.16;5066834;28;20781;-69
2023/09/01 03:52:21;;;;;;;5.90;4.23;;;;;;;16.24;72.14;96092.28;5066769;28;20654;-69
2023/09/01 03:54:46;;;;;;;6.97;4.47;;;;;;;16.36;72.14;96093.22;5066398;28;20197;-68
2023/09/01 03:57:11;;;;;;;7.93;4.50;;;;;;;16.29;71.68;96088.34;5066430;28;20265;-69
2023/09/01 03:59:37;;;;;;;7.63;4.80;;;;;;;16.30;71.87;96089.22;5066928;28;20170;-68
2023/09/01 04:02:04;;;;;;;13.40;4.70;;;;;;;16.22;71.86;96087.09;5066933;28;20660;-69
2023/09/01 04:04:30;;;;;;;5.90;3.80;;;;;;;16.22;72.50;96094.19;5066884;28;20201;-68
2023/09/01 04:06:55;;;;;;;10.57;4.80;;;;;;;16.23;71.83;96096.75;5067196;28;20401;-69
2023/09/01 04:09:21;;;;;;;7.53;4.00;;;;;;;16.28;71.83;96096.41;5067440;28;20680;-69
2023/09/01 04:11:46;;;;;;;22.47;6.00;;;;;;;16.28;71.92;96099.06;5068228;28;20236;-70
2023/09/01 04:14:11;;;;;;;9.43;4.50;;;;;;;16.30;72.35;96100.63;5085259;28;20190;-69
2023/09/01 04:16:40;;;;;;;14.83;5.00;;;;;;;16.26;72.29;96099.16;5073071;28;20488;-69
2023/09/01 04:19:05;;;;;;;5.20;4.70;;;;;;;16.33;72.18;96098.72;5067192;28;20763;-69
2023/09/01 04:21:30;;;;;;;6.17;4.50;;;;;;;16.35;71.09;96102.13;5067164;28;20415;-69
2023/09/01 04:23:56;;;;;;;5.70;4.00;;;;;;;16.25;71.72;96100.13;5066564;28;20248;-69
2023/09/01 04:26:22;;;;;;;11.90;5.47;;;;;;;16.38;71.55;96099.25;5067107;28;20165;-69
2023/09/01 04:28:47;;;;;;;21.70;5.43;;;;;;;16.27;71.48;96105.28;5067135;28;20167;-69
2023/09/01 04:31:27;;;;;;;20.03;5.53;;;;;;;16.38;72.02;96102.72;5067103;28;20536;-69
2023/09/01 04:33:53;;;;;;;6.80;4.67;;;;;;;16.35;71.43;96110.06;5062178;28;20710;-69
2023/09/01 04:36:19;;;;;;;8.30;4.43;;;;;;;16.33;71.38;96117.28;5065841;28;20563;-69
2023/09/01 04:38:44;;;;;;;9.83;3.83;;;;;;;16.38;71.02;96110.66;5065874;28;20539;-69
2023/09/01 04:41:09;;;;;;;7.73;5.17;;;;;;;16.34;71.02;96106.53;5066063;28;20261;-69
2023/09/01 04:43:35;;;;;;;8.93;4.70;;;;;;;16.36;70.86;96102.00;5065633;28;20686;-69
2023/09/01 04:46:00;;;;;;;9.00;4.23;;;;;;;16.34;71.10;96103.91;5065401;28;20252;-68
2023/09/01 04:48:27;;;;;;;8.20;4.80;;;;;;;16.30;70.86;96103.28;5064708;28;20170;-69
2023/09/01 04:50:52;;;;;;;8.20;4.43;;;;;;;16.37;70.68;96105.47;5062919;28;20257;-70
2023/09/01 04:53:18;;;;;;;15.13;5.37;;;;;;;16.37;70.91;96110.78;5063226;28;20503;-69
2023/09/01 04:55:44;;;;;;;8.10;4.80;;;;;;;16.36;70.87;96103.78;5063324;28;20185;-68
2023/09/01 04:58:09;;;;;;;10.43;5.30;;;;;;;16.40;70.58;96105.28;5063451;28;20267;-69
2023/09/01 05:00:35;;;;;;;18.60;6.13;;;;;;;16.42;70.53;96104.22;5063554;28;20169;-68
2023/09/01 05:03:01;;;;;;;15.23;6.43;;;;;;;16.45;71.11;96111.94;5063520;28;20584;-68
2023/09/01 05:05:26;;;;;;;9.30;5.60;;;;;;;16.27;71.60;96118.53;5064772;28;20277;-68
2023/09/01 05:07:51;;;;;;;7.50;5.67;;;;;;;16.40;71.37;96108.75;5063946;28;20461;-69
2023/09/01 05:10:17;;;;;;;10.37;6.20;;;;;;;16.42;71.12;96113.97;5063103;28;20178;-69
2023/09/01 05:12:42;;;;;;;12.60;5.20;;;;;;;16.38;71.15;96123.06;5064393;28;20257;-68
2023/09/01 05:15:08;;;;;;;5.97;4.30;;;;;;;16.42;70.46;96122.75;5063387;28;20210;-69
2023/09/01 05:17:34;;;;;;;11.97;5.40;;;;;;;16.44;70.85;96122.63;5064093;28;20197;-68
2023/09/01 05:19:59;;;;;;;9.00;4.00;;;;;;;16.41;70.66;96122.84;5064043;28;20174;-69
2023/09/01 05:22:25;;;;;;;16.33;5.40;;;;;;;16.42;70.38;96129.84;5061308;28;20174;-68
2023/09/01 05:24:51;;;;;;;10.40;4.30;;;;;;;16.45;70.84;96127.81;5063014;28;20551;-68
2023/09/01 05:27:19;;;;;;;6.80;4.30;;;;;;;16.42;70.79;96129.84;5069415;28;20458;-69
2023/09/01 05:29:47;;;;;;;5.40;4.43;;;;;;;16.47;70.54;96127.72;5064389;28;20750;-68
2023/09/01 05:32:12;;;;;;;11.40;5.03;;;;;;;16.56;70.48;96121.75;5062226;28;20443;-68
2023/09/01 05:34:38;;;;;;;11.00;4.93;;;;;;;16.60;69.80;96128.50;5064488;28;20452;-69
2023/09/01 05:37:03;;;;;;;9.33;4.97;;;;;;;16.52;70.58;96130.88;5061339;28;20217;-68
2023/09/01 05:39:29;;;;;;;8.10;5.40;;;;;;;16.53;70.36;96132.56;5061516;28;20384;-68
2023/09/01 05:41:54;;;;;;;9.97;6.33;;;;;;;16.58;69.85;96130.41;5057724;28;20185;-68
2023/09/01 05:44:20;;;;;;;10.80;6.60;;;;;;;16.58;70.06;96133.06;5060604;28;20818;-68
2023/09/01 05:46:45;;;;;;;10.77;6.00;;;;;;;16.68;69.42;96123.50;5063229;28;20256;-68
2023/09/01 05:49:11;;;;;;;11.80;5.70;;;;;;;16.79;69.22;96128.03;5060687;28;20186;-68
2023/09/01 05:51:36;;;;;;;12.03;6.40;;;;;;;16.95;68.79;96130.44;5062708;28;20183;-68
2023/09/01 05:54:02;;;;;;;13.27;6.50;;;;;;;16.97;68.81;96133.81;5066322;28;20224;-68
2023/09/01 05:56:27;;;;;;;9.10;6.67;;;;;;;17.01;68.78;96137.06;5061013;28;20670;-67
2023/09/01 05:58:53;;;;;;;6.20;5.60;;;;;;;17.18;68.00;96138.50;5061616;28;20185;-68
2023/09/01 06:01:18;;;;;;;6.20;4.87;;;;;;;17.06;68.09;96151.69;5071720;28;20673;-67
2023/09/01 06:03:43;;;;;;;18.60;5.70;;;;;;;17.04;68.14;96152.78;5066479;28;20255;-69
2023/09/01 06:06:09;;;;;;;22.00;5.33;;;;;;;16.96;68.40;96144.53;5062143;28;20844;-68
2023/09/01 06:08:35;;;;;;;10.90;5.40;;;;;;;16.93;68.78;96141.13;5061075;28;20187;-68
2023/09/01 06:11:08;;;;;;;7.67;4.10;;;;;;;16.96;68.64;96147.16;5066644;28;20188;-68
2023/09/01 06:13:34;;;;;;;10.50;4.23;;;;;;;16.95;68.81;96146.31;5062109;28;20185;-68
2023/09/01 06:16:03;;;;;;;7.07;4.17;;;;;;;16.91;68.79;96147.50;5062965;28;20444;-68
2023/09/01 06:18:28;;;;;;;10.70;3.70;;;;;;;16.98;69.06;96145.25;5061332;28;20190;-68
2023/09/01 06:20:53;;;;;;;8.53;3.80;;;;;;;16.97;68.84;96144.41;5063768;28;20443;-69
2023/09/01 06:23:19;;;;;;;21.10;4.80;;;;;;;16.98;68.83;96154.03;5081196;28;20185;-70
2023/09/01 06:25:44;;;;;;;10.90;4.90;;;;;;;17.03;68.95;96153.72;5061151;28;20201;-71
2023/09/01 06:28:10;;;;;;;9.20;4.50;;;;;;;17.63;70.59;96158.06;5066646;28;20196;-71
2023/09/01 06:30:36;;;;;;;19.40;4.63;;;;;;;17.74;66.99;96151.91;5064669;28;20186;-71
2023/09/01 06:33:01;;;;;;;23.80;6.37;;;;;;;17.70;68.93;96166.41;5066405;28;20344;-73
2023/09/01 06:35:27;;;;;;;20.10;5.13;;;;;;;17.76;67.66;96160.59;5065838;28;20539;-72
2023/09/01 06:37:52;;;;;;;37.50;7.07;;;;;;;17.70;67.77;96167.25;5063587;28;20201;-72
2023/09/01 06:40:17;;;;;;;25.83;5.63;;;;;;;17.65;67.83;96160.59;5070682;28;20290;-71
2023/09/01 06:42:43;;;;;;;38.37;5.33;;;;;;;17.85;68.02;96159.09;5069658;28;20186;-72
2023/09/01 06:45:08;;;;;;;59.40;6.73;;;;;;;17.75;67.60;96167.72;5053650;28;20202;-71
2023/09/01 06:47:33;;;;;;;34.43;6.70;;;;;;;17.97;67.61;96169.59;5055891;28;20178;-71
2023/09/01 06:49:59;;;;;;;49.20;8.57;;;;;;;17.86;67.81;96179.34;5068224;28;20583;-71
2023/09/01 06:52:24;;;;;;;103.03;13.33;;;;;;;17.91;67.14;96180.72;5068663;28;20656;-71
2023/09/01 06:54:50;;;;;;;42.97;8.40;;;;;;;17.98;66.81;96181.09;5068085;28;20296;-71
2023/09/01 06:57:15;;;;;;;36.20;7.50;;;;;;;17.92;67.42;96182.38;5068333;28;20194;-71
2023/09/01 06:59:41;;;;;;;37.53;6.87;;;;;;;17.82;68.62;96185.88;5067766;28;20193;-70
2023/09/01 07:02:06;;;;;;;58.83;8.47;;;;;;;17.88;68.49;96199.53;5068146;28;20181;-73
2023/09/01 07:04:31;;;;;;;107.77;14.37;;;;;;;17.92;68.52;96193.00;5065469;28;20228;-72
2023/09/01 07:06:57;;;;;;;66.47;10.53;;;;;;;17.97;68.45;96206.78;5067285;28;20491;-69
2023/09/01 07:09:22;;;;;;;49.93;8.63;;;;;;;18.07;68.24;96203.41;5066888;28;20920;-70
2023/09/01 07:11:48;;;;;;;39.73;7.40;;;;;;;18.09;67.87;96204.97;5067907;28;20178;-72
2023/09/01 07:14:13;;;;;;;341.97;32.57;;;;;;;17.91;68.81;96199.28;5067487;28;20236;-72
2023/09/01 07:16:38;;;;;;;354.33;34.00;;;;;;;17.94;68.91;96203.53;5067852;28;20542;-71
2023/09/01 07:19:04;;;;;;;76.97;10.60;;;;;;;18.10;68.75;96203.19;5066588;28;20190;-71
2023/09/01 07:21:29;;;;;;;94.27;10.80;;;;;;;18.18;68.36;96206.09;5066266;28;20182;-70
2023/09/01 07:23:54;;;;;;;130.60;16.63;;;;;;;18.09;68.33;96199.66;5066712;28;20217;-72
2023/09/01 07:26:20;;;;;;;42.03;7.57;;;;;;;18.27;67.98;96216.00;5069807;28;20204;-71
2023/09/01 07:28:45;;;;;;;24.67;5.17;;;;;;;18.34;68.06;96209.25;5068752;28;20181;-72
2023/09/01 07:31:15;;;;;;;46.23;7.50;;;;;;;18.54;67.58;96205.03;5086771;28;20184;-71
2023/09/01 07:33:43;;;;;;;108.63;9.50;;;;;;;18.56;67.41;96207.56;5077747;28;20174;-71
2023/09/01 07:36:10;;;;;;;226.40;22.23;;;;;;;18.60;67.58;96201.88;5065087;28;20444;-70
2023/09/01 07:38:36;;;;;;;131.30;12.83;;;;;;;18.44;68.25;96196.09;5071335;28;20432;-70
2023/09/01 07:41:03;;;;;;;47.30;7.97;;;;;;;18.73;66.90;96195.59;5066608;28;20776;-71
2023/09/01 07:43:28;;;;;;;8.63;4.00;;;;;;;18.52;68.63;96201.66;5073651;28;20523;-71
2023/09/01 07:45:54;;;;;;;16.60;4.87;;;;;;;18.25;69.24;96206.47;5071721;28;20810;-72
2023/09/01 07:48:19;;;;;;;17.27;4.37;;;;;;;18.31;69.51;96204.19;5084136;28;20174;-71
2023/09/01 07:50:46;;;;;;;7.80;3.23;;;;;;;18.44;69.10;96205.88;5083549;28;20170;-71
2023/09/01 07:53:11;;;;;;;9.10;4.40;;;;;;;18.38;70.60;96208.06;5073016;28;20182;-71
2023/09/01 07:55:37;;;;;;;10.73;3.70;;;;;;;18.46;69.62;96209.25;5069031;28;20486;-71
2023/09/01 07:58:02;;;;;;;25.23;4.90;;;;;;;18.45;70.42;96203.09;5065393;28;20217;-71
2023/09/01 08:00:28;;;;;;;23.63;5.97;;;;;;;18.45;70.05;96211.09;5066405;28;20189;-71
2023/09/01 08:02:53;;;;;;;19.30;5.53;;;;;;;18.67;70.42;96209.38;5066783;28;20730;-70
2023/09/01 08:05:19;;;;;;;7.80;3.77;;;;;;;18.65;70.05;96217.47;5066581;28;20350;-69
2023/09/01 08:07:46;;;;;;;11.00;4.63;;;;;;;18.56;70.88;96219.03;5071598;28;20601;-68
2023/09/01 08:10:12;;;;;;;6.63;3.90;;;;;;;18.70;70.75;96217.09;5075868;28;20285;-70
2023/09/01 08:12:37;;;;;;;5.93;3.60;;;;;;;18.89;71.10;96217.34;5069975;28;20883;-69
2023/09/01 08:15:03;;;;;;;6.13;4.20;;;;;;;18.96;70.71;96223.03;5052743;28;20210;-67
2023/09/01 08:17:29;;;;;;;7.57;4.37;;;;;;;18.93;70.98;96228.59;5054868;28;20284;-69
2023/09/01 08:19:54;;;;;;;5.60;4.20;;;;;;;19.11;70.65;96229.78;5066919;28;20182;-69
2023/09/01 08:22:20;;;;;;;5.80;3.70;;;;;;;19.24;70.00;96222.47;5065595;28;20611;-68
2023/09/01 08:24:45;;;;;;;4.00;3.53;;;;;;;19.23;69.93;96230.59;5061309;28;20202;-68
2023/09/01 08:27:11;;;;;;;11.63;4.40;;;;;;;19.36;69.98;96225.94;5065365;28;20185;-69
2023/09/01 08:29:38;;;;;;;8.37;3.97;;;;;;;19.54;69.47;96226.28;5068704;28;20192;-69
2023/09/01 08:32:05;;;;;;;7.73;3.43;;;;;;;19.48;68.74;96225.94;5067268;28;20427;-69
2023/09/01 08:34:31;;;;;;;7.30;3.30;;;;;;;19.65;67.89;96231.56;5064097;28;20447;-69
2023/09/01 08:36:57;;;;;;;9.77;4.03;;;;;;;19.56;68.05;96229.66;5065664;28;21308;-68
2023/09/01 08:39:22;;;;;;;7.27;3.27;;;;;;;19.59;68.12;96234.72;5064913;28;20366;-70
2023/09/01 08:41:50;;;;;;;6.60;3.50;;;;;;;19.74;68.46;96229.13;5065385;28;20315;-69
2023/09/01 08:44:16;;;;;;;5.87;3.40;;;;;;;19.91;68.34;96228.53;5065738;28;20197;-69
2023/09/01 08:46:42;;;;;;;10.90;3.73;;;;;;;20.03;67.62;96214.22;5069622;28;20432;-69
2023/09/01 08:49:08;;;;;;;6.00;3.00;;;;;;;19.82;67.40;96230.19;5062242;28;20440;-70
2023/09/01 08:51:39;;;;;;;8.23;3.43;;;;;;;19.81;67.70;96222.31;5065408;28;20442;-69
2023/09/01 08:54:05;;;;;;;8.10;4.20;;;;;;;19.94;68.08;96228.31;5064343;28;20589;-68
2023/09/01 08:56:32;;;;;;;4.80;3.40;;;;;;;20.08;68.04;96222.66;5066946;28;20467;-68
2023/09/01 08:58:58;;;;;;;3.53;2.80;;;;;;;20.27;66.94;96216.59;5065654;28;21278;-68
2023/09/01 09:01:24;;;;;;;11.30;3.20;;;;;;;20.99;66.20;96219.31;5068038;28;20484;-68
2023/09/01 09:03:49;;;;;;;5.60;3.10;;;;;;;21.66;64.25;96220.41;5068596;28;20664;-69
2023/09/01 09:06:16;;;;;;;3.70;2.53;;;;;;;21.59;64.46;96217.50;5066313;28;20185;-69
2023/09/01 09:08:42;;;;;;;7.23;3.80;;;;;;;21.97;62.60;96207.78;5067116;28;20185;-67
2023/09/01 09:11:13;;;;;;;6.17;2.70;;;;;;;22.16;61.45;96202.38;5065956;28;20871;-67
2023/09/01 09:13:40;;;;;;;5.37;3.50;;;;;;;22.48;60.45;96203.03;5064989;28;20194;-68
2023/09/01 09:16:11;;;;;;;5.00;2.60;;;;;;;22.59;58.42;96206.38;5057073;28;20444;-69
2023/09/01 09:18:40;;;;;;;2.30;1.97;;;;;;;22.70;57.10;96205.34;5065721;28;20497;-68
2023/09/01 09:21:27;;;;;;;6.10;2.70;;;;;;;22.70;56.59;96200.00;5067382;28;20435;-67
2023/09/01 09:23:55;;;;;;;8.23;2.37;;;;;;;22.87;54.58;96198.38;5061927;28;20497;-69
2023/09/01 09:26:28;;;;;;;7.83;2.50;;;;;;;23.14;53.90;96197.53;5065443;28;20432;-68
2023/09/01 09:28:53;;;;;;;6.37;2.90;;;;;;;23.35;52.82;96197.28;5064613;28;20452;-68
2023/09/01 09:31:40;;;;;;;24.50;3.53;;;;;;;23.45;52.23;96195.34;5066235;28;20448;-68
2023/09/01 09:34:14;;;;;;;4.30;2.20;;;;;;;23.73;52.25;96195.28;5066804;28;20262;-67
2023/09/01 09:36:39;;;;;;;3.00;2.20;;;;;;;23.48;51.22;96193.38;5072310;28;20451;-67
2023/09/01 09:39:06;;;;;;;7.80;2.07;;;;;;;23.49;50.58;96195.91;5069593;28;20436;-69
2023/09/01 09:41:45;;;;;;;6.33;2.13;;;;;;;23.68;50.47;96200.28;5072720;28;20185;-69
2023/09/01 09:44:11;;;;;;;9.10;2.40;;;;;;;23.66;50.35;96199.59;5071117;28;20561;-69
2023/09/01 09:46:41;;;;;;;8.07;2.60;;;;;;;23.38;50.77;96199.63;5070040;28;20910;-69
2023/09/01 09:49:09;;;;;;;7.63;2.83;;;;;;;23.44;51.22;96195.53;5068671;28;20182;-69
2023/09/01 09:51:35;;;;;;;5.90;2.10;;;;;;;23.66;50.64;96192.38;5070238;28;20459;-69
2023/09/01 09:54:03;;;;;;;6.50;2.43;;;;;;;23.66;50.56;96194.22;5068816;28;21126;-68
2023/09/01 09:56:33;;;;;;;16.00;3.47;;;;;;;23.89;50.36;96200.00;5071552;28;20525;-69
2023/09/01 09:59:03;;;;;;;6.60;2.67;;;;;;;23.90;50.15;96196.31;5065837;28;20436;-66
2023/09/01 10:01:37;;;;;;;8.10;3.13;;;;;;;23.83;49.57;96190.72;5067764;28;20872;-68
2023/09/01 10:04:07;;;;;;;6.03;2.10;;;;;;;23.52;50.07;96190.25;5069308;28;20487;-68
2023/09/01 10:06:36;;;;;;;3.80;2.17;;;;;;;23.46;50.14;96196.22;5068413;28;20943;-68
2023/09/01 10:09:04;;;;;;;4.13;2.20;;;;;;;23.36;50.11;96198.09;5069185;28;20435;-68
2023/09/01 10:11:29;;;;;;;7.33;2.80;;;;;;;23.67;49.85;96195.94;5069836;28;20471;-69
2023/09/01 10:13:56;;;;;;;6.33;2.53;;;;;;;23.72;49.36;96190.94;5067948;28;20452;-70
2023/09/01 10:16:23;;;;;;;7.07;2.30;;;;;;;23.53;49.47;96194.63;5068660;28;20351;-70
2023/09/01 10:18:49;;;;;;;2.37;2.00;;;;;;;23.70;49.22;96184.88;5064022;28;20471;-68
2023/09/01 10:21:16;;;;;;;4.73;2.23;;;;;;;23.98;48.41;96180.31;5071691;28;20593;-68
2023/09/01 10:23:43;;;;;;;2.50;2.07;;;;;;;23.67;49.24;96183.38;5068772;28;20431;-68
2023/09/01 10:26:24;;;;;;;5.80;2.30;;;;;;;23.35;50.63;96186.56;5070849;28;20537;-69
2023/09/01 10:29:04;;;;;;;4.93;2.07;;;;;;;23.01;50.68;96192.56;5069709;28;20560;-69
2023/09/01 10:31:30;;;;;;;3.57;1.90;;;;;;;22.55;51.36;96194.28;5070981;28;20450;-69
2023/09/01 10:34:04;;;;;;;4.77;2.00;;;;;;;22.50;52.01;96188.53;5067640;28;20824;-69
2023/09/01 10:36:29;;;;;;;5.20;2.10;;;;;;;22.50;52.49;96188.53;5068305;28;20475;-68
2023/09/01 10:39:03;;;;;;;5.43;2.10;;;;;;;22.62;52.56;96192.69;5065829;28;20444;-68
2023/09/01 10:42:07;;;;;;;5.53;1.87;;;;;;;22.61;52.06;96193.69;5068166;28;20178;-68
2023/09/01 10:44:44;;;;;;;3.07;2.30;;;;;;;22.80;51.65;96181.22;4987920;28;20558;-68
2023/09/01 10:47:31;;;;;;;4.77;2.27;;;;;;;22.80;51.08;96191.94;5070920;28;20425;-69
2023/09/01 10:49:58;;;;;;;2.50;1.83;;;;;;;22.76;51.14;96190.53;5064259;28;20428;-68
2023/09/01 10:52:24;;;;;;;3.57;2.73;;;;;;;22.74;51.06;96192.50;5067281;28;20795;-68
2023/09/01 10:55:04;;;;;;;7.87;2.40;;;;;;;22.70;51.77;96185.75;5065297;28;20444;-68
2023/09/01 10:57:49;;;;;;;3.83;2.50;;;;;;;22.66;52.01;96184.41;5067600;28;20271;-68
2023/09/01 11:00:30;;;;;;;7.27;2.70;;;;;;;22.85;52.02;96184.31;5067235;28;20436;-68
2023/09/01 11:03:30;;;;;;;4.17;2.10;;;;;;;23.33;51.07;96175.16;5067840;28;20538;-69
2023/09/01 11:05:57;;;;;;;8.40;2.23;;;;;;;23.43;49.87;96180.44;5060215;28;20444;-68
2023/09/01 11:08:24;;;;;;;5.80;2.70;;;;;;;23.25;50.52;96183.13;5065781;28;20432;-68
2023/09/01 11:10:50;;;;;;;6.77;2.43;;;;;;;23.26;50.71;96187.47;5062957;28;20517;-69
2023/09/01 11:13:17;;;;;;;5.60;2.50;;;;;;;23.14;50.86;96177.97;5067450;28;20480;-68
2023/09/01 11:15:48;;;;;;;3.97;2.57;;;;;;;22.99;51.25;96191.03;5049605;28;20206;-69
2023/09/01 11:18:16;;;;;;;3.20;2.00;;;;;;;22.83;51.77;96175.56;5068634;28;20467;-68
2023/09/01 11:20:42;;;;;;;3.17;1.90;;;;;;;22.66;52.31;96193.25;5067518;28;20467;-68
2023/09/01 11:23:09;;;;;;;9.43;2.23;;;;;;;23.06;51.61;96189.44;5067309;28;20436;-68
2023/09/01 11:25:35;;;;;;;3.10;2.10;;;;;;;23.33;50.76;96188.53;5063945;28;20206;-69
2023/09/01 11:28:00;;;;;;;4.23;2.27;;;;;;;23.57;50.21;96179.06;5074861;28;20430;-69
2023/09/01 11:30:26;;;;;;;5.63;2.90;;;;;;;23.46;51.12;96175.63;5067566;28;20302;-70
2023/09/01 11:32:51;;;;;;;6.53;1.90;;;;;;;23.31;51.07;96178.97;5067730;28;20618;-69